Aviation Digital Data Service (ADDS)

Output produced by METARs form (2222 UTC 01 December 2021)
found at http://aviationweather.gov/metar/data/
 
KJAN 012154Z 23005KT 10SM CLR 22/09 A3007 RMK AO2 SLP181 T02220089
KJAN 011732Z 0118/0218 21013G18KT P6SM SKC 
     FM012200 22005KT P6SM SKC